createdAt,value
2023-05-02T00:00:28.557Z,10.89
2023-05-02T00:01:28.521Z,10.96
2023-05-02T00:02:28.588Z,10.93
2023-05-02T00:03:28.631Z,10.86
2023-05-02T00:04:28.543Z,10.96
2023-05-02T00:05:28.516Z,10.96
2023-05-02T00:06:28.527Z,10.90
2023-05-02T00:07:28.476Z,10.96
2023-05-02T00:08:28.466Z,11.00
2023-05-02T00:09:28.456Z,10.97
2023-05-02T00:10:28.497Z,11.11
2023-05-02T00:11:28.444Z,11.05
2023-05-02T00:12:28.440Z,11.08
2023-05-02T00:13:28.468Z,11.08
2023-05-02T00:14:28.420Z,11.08
2023-05-02T00:15:28.457Z,10.96
2023-05-02T00:16:28.427Z,10.81
2023-05-02T00:17:28.413Z,10.81
2023-05-02T00:18:28.415Z,10.72
2023-05-02T00:19:28.379Z,10.68
2023-05-02T00:20:28.400Z,10.72
2023-05-02T00:21:28.368Z,10.74
2023-05-02T00:22:28.360Z,10.68
2023-05-02T00:23:28.348Z,10.84
2023-05-02T00:24:28.342Z,10.78
2023-05-02T00:25:28.385Z,10.86
2023-05-02T00:26:29.485Z,10.81
2023-05-02T00:27:29.472Z,10.86
2023-05-02T00:28:29.483Z,10.89
2023-05-02T00:29:29.488Z,10.79
2023-05-02T00:30:29.518Z,10.79
2023-05-02T00:31:29.541Z,10.64
2023-05-02T00:32:29.502Z,10.71
2023-05-02T00:33:29.456Z,10.72
2023-05-02T00:34:29.624Z,10.72
2023-05-02T00:35:29.432Z,10.82
2023-05-02T00:36:29.418Z,10.86
2023-05-02T00:37:29.405Z,10.96
2023-05-02T00:38:29.399Z,10.89
2023-05-02T00:39:29.579Z,10.79
2023-05-02T00:40:29.379Z,10.94
2023-05-02T00:41:29.377Z,10.99
2023-05-02T00:42:29.366Z,11.04
2023-05-02T00:43:29.384Z,10.92
2023-05-02T00:44:29.356Z,11.00
2023-05-02T00:45:29.369Z,10.96
2023-05-02T00:46:29.380Z,10.96
2023-05-02T00:47:29.397Z,10.94
2023-05-02T00:48:29.321Z,10.94
2023-05-02T00:49:29.323Z,11.04
2023-05-02T00:50:29.326Z,10.84
2023-05-02T00:51:29.300Z,10.82
2023-05-02T00:52:29.365Z,10.74
2023-05-02T00:53:29.274Z,10.79
2023-05-02T00:54:29.273Z,10.75
2023-05-02T00:55:29.290Z,10.79
2023-05-02T00:56:29.274Z,10.78
2023-05-02T00:57:29.245Z,10.79
2023-05-02T00:58:29.253Z,10.79
2023-05-02T00:59:29.228Z,10.75
2023-05-02T01:00:29.265Z,10.74
2023-05-02T01:01:29.257Z,10.68
2023-05-02T01:02:29.281Z,10.71
2023-05-02T01:03:29.456Z,10.64
2023-05-02T01:04:29.213Z,10.78
2023-05-02T01:05:29.209Z,10.69
2023-05-02T01:06:30.059Z,10.63
2023-05-02T01:07:29.168Z,10.57
2023-05-02T01:08:29.171Z,10.56
2023-05-02T01:09:29.832Z,10.53
2023-05-02T01:10:29.177Z,10.49
2023-05-02T01:11:29.148Z,10.46
2023-05-02T01:12:29.158Z,10.30
2023-05-02T01:13:29.203Z,10.35
2023-05-02T01:14:29.123Z,10.37
2023-05-02T01:15:29.128Z,10.51
2023-05-02T01:16:29.149Z,10.57
2023-05-02T01:17:29.211Z,10.59
2023-05-02T01:18:29.094Z,10.57
2023-05-02T01:19:29.080Z,10.51
2023-05-02T01:20:29.106Z,10.56
2023-05-02T01:21:29.079Z,10.69
2023-05-02T01:22:29.053Z,10.71
2023-05-02T01:23:29.055Z,10.61
2023-05-02T01:24:29.038Z,10.64
2023-05-02T01:25:29.092Z,10.63
2023-05-02T01:26:29.052Z,10.64
2023-05-02T01:27:29.042Z,10.54
2023-05-02T01:28:29.012Z,10.61
2023-05-02T01:29:29.020Z,10.54
2023-05-02T01:30:29.026Z,10.46
2023-05-02T01:31:29.052Z,10.51
2023-05-02T01:32:29.018Z,10.48
2023-05-02T01:33:28.983Z,10.49
2023-05-02T01:34:28.958Z,10.61
2023-05-02T01:35:28.978Z,10.59
2023-05-02T01:36:28.950Z,10.46
2023-05-02T01:37:28.950Z,10.54
2023-05-02T01:38:28.936Z,10.48
2023-05-02T01:39:28.927Z,10.49
2023-05-02T01:40:28.948Z,10.51
2023-05-02T01:41:28.927Z,10.57
2023-05-02T01:42:28.910Z,10.57
2023-05-02T01:43:54.418Z,10.49
2023-05-02T01:44:28.896Z,10.49
2023-05-02T01:45:28.904Z,10.49
2023-05-02T01:46:29.933Z,10.49
2023-05-02T01:47:28.930Z,10.48
2023-05-02T01:48:28.858Z,10.51
2023-05-02T01:49:28.849Z,10.46
2023-05-02T01:50:28.899Z,10.49
2023-05-02T01:51:28.831Z,10.48
2023-05-02T01:52:28.837Z,10.40
2023-05-02T01:53:31.557Z,10.48
2023-05-02T01:54:28.803Z,10.53
2023-05-02T01:55:28.836Z,10.63
2023-05-02T01:56:28.796Z,10.57
2023-05-02T01:57:28.781Z,10.63
2023-05-02T01:58:28.780Z,10.56
2023-05-02T01:59:28.774Z,10.57
2023-05-02T02:00:28.966Z,10.60
2023-05-02T02:01:28.797Z,10.61
2023-05-02T02:02:29.808Z,10.54
2023-05-02T02:03:28.770Z,10.63
2023-05-02T02:04:28.822Z,10.54
2023-05-02T02:05:28.747Z,10.59
2023-05-02T02:06:28.732Z,10.53
2023-05-02T02:07:28.753Z,10.67
2023-05-02T02:08:28.734Z,10.57
2023-05-02T02:09:28.694Z,10.67
2023-05-02T02:10:28.893Z,10.59
2023-05-02T02:11:28.689Z,10.57
2023-05-02T02:12:28.682Z,10.60
2023-05-02T02:13:29.672Z,10.61
2023-05-02T02:14:28.664Z,10.60
2023-05-02T02:15:28.650Z,10.64
2023-05-02T02:16:28.742Z,10.64
2023-05-02T02:17:28.689Z,10.60
2023-05-02T02:18:28.620Z,10.61
2023-05-02T02:19:28.614Z,10.63
2023-05-02T02:20:28.605Z,10.69
2023-05-02T02:21:28.631Z,10.63
2023-05-02T02:22:28.595Z,10.61
2023-05-02T02:23:28.593Z,10.60
2023-05-02T02:24:28.580Z,10.71
2023-05-02T02:25:28.573Z,10.57
2023-05-02T02:26:28.592Z,10.49
2023-05-02T02:27:28.562Z,10.57
2023-05-02T02:28:28.553Z,10.63
2023-05-02T02:29:28.552Z,10.53
2023-05-02T02:30:28.558Z,10.63
2023-05-02T02:31:28.596Z,10.57
2023-05-02T02:32:28.591Z,10.56
2023-05-02T02:33:28.513Z,10.56
2023-05-02T02:34:28.501Z,10.49
2023-05-02T02:35:28.502Z,10.49
2023-05-02T02:36:28.526Z,10.40
2023-05-02T02:37:28.488Z,10.57
2023-05-02T02:38:28.477Z,10.56
2023-05-02T02:39:28.474Z,10.54
2023-05-02T02:40:28.455Z,10.64
2023-05-02T02:41:28.476Z,10.48
2023-05-02T02:42:28.448Z,10.53
2023-05-02T02:43:28.450Z,10.61
2023-05-02T02:44:28.437Z,10.57
2023-05-02T02:45:28.423Z,10.61
2023-05-02T02:46:28.518Z,10.61
2023-05-02T02:47:28.447Z,10.48
2023-05-02T02:48:28.394Z,10.51
2023-05-02T02:49:28.402Z,10.42
2023-05-02T02:50:29.400Z,10.41
2023-05-02T02:51:28.566Z,10.34
2023-05-02T02:52:28.387Z,10.30
2023-05-02T02:53:28.378Z,10.31
2023-05-02T02:54:28.358Z,10.37
2023-05-02T02:55:28.346Z,10.28
2023-05-02T02:56:28.377Z,10.25
2023-05-02T02:57:28.331Z,10.12
2023-05-02T02:58:28.330Z,10.19
2023-05-02T02:59:28.321Z,10.19
2023-05-02T03:00:28.334Z,10.04
2023-05-02T03:01:28.354Z,9.95
2023-05-02T03:02:28.401Z,9.80
2023-05-02T03:03:28.330Z,9.82
2023-05-02T03:04:29.274Z,9.82
2023-05-02T03:05:28.278Z,9.73
2023-05-02T03:06:28.294Z,9.79
2023-05-02T03:07:28.359Z,9.69
2023-05-02T03:08:28.245Z,9.80
2023-05-02T03:09:28.241Z,9.68
2023-05-02T03:10:28.228Z,9.73
2023-05-02T03:11:29.542Z,9.66
2023-05-02T03:12:28.234Z,9.74
2023-05-02T03:13:28.205Z,9.69
2023-05-02T03:14:28.242Z,9.72
2023-05-02T03:15:28.190Z,9.66
2023-05-02T03:16:28.229Z,9.66
2023-05-02T03:17:28.236Z,9.51
2023-05-02T03:18:28.163Z,9.62
2023-05-02T03:19:28.169Z,9.55
2023-05-02T03:20:28.154Z,9.61
2023-05-02T03:21:28.145Z,9.61
2023-05-02T03:22:28.158Z,9.65
2023-05-02T03:23:28.129Z,9.62
2023-05-02T03:24:28.120Z,9.62
2023-05-02T03:25:28.108Z,9.55
2023-05-02T03:26:29.120Z,9.51
2023-05-02T03:27:28.111Z,9.58
2023-05-02T03:28:28.081Z,9.44
2023-05-02T03:29:28.073Z,9.59
2023-05-02T03:30:28.090Z,9.58
2023-05-02T03:31:28.125Z,9.44
2023-05-02T03:32:28.144Z,9.54
2023-05-02T03:35:25.366Z,9.48
2023-05-02T03:36:25.359Z,9.55
2023-05-02T03:37:25.378Z,9.32
2023-05-02T03:38:25.344Z,9.28
2023-05-02T03:39:26.509Z,9.25
2023-05-02T03:40:26.488Z,9.16
2023-05-02T03:41:26.478Z,9.21
2023-05-02T03:42:26.512Z,9.26
2023-05-02T03:43:26.499Z,9.23
2023-05-02T03:44:26.459Z,9.18
2023-05-02T03:45:26.452Z,9.18
2023-05-02T03:46:26.515Z,9.28
2023-05-02T03:47:26.550Z,9.34
2023-05-02T03:48:26.461Z,9.22
2023-05-02T03:49:26.428Z,9.31
2023-05-02T03:50:26.415Z,9.36
2023-05-02T03:51:26.406Z,9.29
2023-05-02T03:52:26.428Z,9.22
2023-05-02T03:53:26.389Z,9.28
2023-05-02T03:54:26.390Z,9.25
2023-05-02T03:55:27.380Z,9.32
2023-05-02T03:56:26.377Z,9.36
2023-05-02T03:57:26.378Z,9.40
2023-05-02T03:58:26.357Z,9.32
2023-05-02T03:59:26.374Z,9.41
2023-05-02T04:00:26.345Z,9.25
2023-05-02T04:01:26.333Z,9.37
2023-05-02T04:02:26.435Z,9.40
2023-05-02T04:03:27.956Z,9.32
2023-05-02T04:04:26.334Z,9.37
2023-05-02T04:05:26.303Z,9.37
2023-05-02T04:06:26.322Z,9.47
2023-05-02T04:07:26.313Z,9.40
2023-05-02T04:08:26.273Z,9.48
2023-05-02T04:09:26.271Z,9.36
2023-05-02T04:10:26.262Z,9.59
2023-05-02T04:11:26.256Z,9.59
2023-05-02T04:12:26.270Z,9.51
2023-05-02T04:13:26.246Z,9.51
2023-05-02T04:14:26.265Z,9.61
2023-05-02T04:15:26.315Z,9.55
2023-05-02T04:16:26.221Z,9.65
2023-05-02T04:17:26.327Z,9.69
2023-05-02T04:18:26.207Z,9.61
2023-05-02T04:19:26.187Z,9.59
2023-05-02T04:20:26.199Z,9.56
2023-05-02T04:21:26.190Z,9.54
2023-05-02T04:22:50.333Z,9.54
2023-05-02T04:23:26.164Z,9.50
2023-05-02T04:24:26.156Z,9.62
2023-05-02T04:25:26.173Z,9.55
2023-05-02T04:26:26.134Z,9.62
2023-05-02T04:27:26.164Z,9.65
2023-05-02T04:28:26.131Z,9.74
2023-05-02T04:29:26.119Z,9.74
2023-05-02T04:30:26.100Z,9.77
2023-05-02T04:31:27.240Z,9.87
2023-05-02T04:32:26.126Z,9.79
2023-05-02T04:33:26.102Z,9.84
2023-05-02T04:34:26.071Z,9.66
2023-05-02T04:35:26.070Z,9.55
2023-05-02T04:36:26.075Z,9.47
2023-05-02T04:37:26.093Z,9.47
2023-05-02T04:38:26.049Z,9.51
2023-05-02T04:39:26.088Z,9.43
2023-05-02T04:40:26.034Z,9.43
2023-05-02T04:41:26.019Z,9.41
2023-05-02T04:42:26.049Z,9.47
2023-05-02T04:43:26.019Z,9.41
2023-05-02T04:44:26.040Z,9.47
2023-05-02T04:45:26.012Z,9.43
2023-05-02T04:46:26.041Z,9.44
2023-05-02T04:47:26.016Z,9.48
2023-05-02T04:48:25.971Z,9.50
2023-05-02T04:49:25.967Z,9.43
2023-05-02T04:50:25.952Z,9.55
2023-05-02T04:51:25.946Z,9.50
2023-05-02T04:52:25.995Z,9.51
2023-05-02T04:53:25.940Z,9.68
2023-05-02T04:54:25.954Z,9.73
2023-05-02T04:55:25.946Z,9.73
2023-05-02T04:56:26.400Z,9.73
2023-05-02T04:57:25.929Z,9.82
2023-05-02T04:58:25.891Z,9.97
2023-05-02T04:59:25.887Z,9.97
2023-05-02T05:00:25.878Z,9.95
2023-05-02T05:01:25.902Z,9.99
2023-05-02T05:02:26.013Z,10.01
2023-05-02T05:03:25.991Z,10.01
2023-05-02T05:04:25.850Z,9.97
2023-05-02T05:05:25.876Z,10.04
2023-05-02T05:06:25.875Z,10.16
2023-05-02T05:07:25.890Z,10.12
2023-05-02T05:08:25.837Z,10.23
2023-05-02T05:09:25.810Z,10.30
2023-05-02T05:10:25.810Z,10.25
2023-05-02T05:11:25.796Z,10.33
2023-05-02T05:12:25.854Z,10.38
2023-05-02T05:13:25.802Z,10.44
2023-05-02T05:14:25.766Z,10.41
2023-05-02T05:15:25.755Z,10.48
2023-05-02T05:16:25.864Z,10.59
2023-05-02T05:17:25.793Z,10.63
2023-05-02T05:18:25.774Z,10.60
2023-05-02T05:19:25.731Z,10.61
2023-05-02T05:20:25.721Z,10.75
2023-05-02T05:21:25.721Z,10.87
2023-05-02T05:22:25.701Z,10.93
2023-05-02T05:23:26.722Z,10.92
2023-05-02T05:24:25.699Z,10.96
2023-05-02T05:25:25.697Z,11.00
2023-05-02T05:26:25.682Z,11.04
2023-05-02T05:27:25.706Z,11.00
2023-05-02T05:28:25.689Z,11.04
2023-05-02T05:29:25.654Z,11.05
2023-05-02T05:30:25.697Z,11.10
2023-05-02T05:31:25.673Z,11.15
2023-05-02T05:32:25.669Z,11.14
2023-05-02T05:33:57.642Z,11.04
2023-05-02T05:34:25.611Z,10.93
2023-05-02T05:35:25.601Z,11.02
2023-05-02T05:36:25.633Z,10.86
2023-05-02T05:37:25.587Z,10.81
2023-05-02T05:38:25.639Z,10.74
2023-05-02T05:39:25.612Z,10.82
2023-05-02T05:40:25.594Z,10.93
2023-05-02T05:41:25.560Z,10.96
2023-05-02T05:42:25.555Z,10.97
2023-05-02T05:43:25.657Z,11.10
2023-05-02T05:44:25.537Z,11.07
2023-05-02T05:45:25.525Z,11.18
2023-05-02T05:46:25.588Z,11.19
2023-05-02T05:47:25.666Z,11.35
2023-05-02T05:48:25.573Z,11.40
2023-05-02T05:49:25.503Z,11.51
2023-05-02T05:50:25.498Z,11.60
2023-05-02T05:51:25.479Z,11.54
2023-05-02T05:52:25.487Z,11.68
2023-05-02T05:53:25.516Z,11.69
2023-05-02T05:54:25.467Z,11.90
2023-05-02T05:55:25.463Z,11.91
2023-05-02T05:56:25.454Z,12.13
2023-05-02T05:57:25.438Z,12.53
2023-05-02T05:58:25.472Z,12.65
2023-05-02T05:59:25.426Z,12.80
2023-05-02T06:00:25.415Z,12.86
2023-05-02T06:01:25.415Z,12.97
2023-05-02T06:02:25.459Z,13.08
2023-05-02T06:03:25.521Z,12.98
2023-05-02T06:04:25.452Z,12.98
2023-05-02T06:05:25.389Z,12.98
2023-05-02T06:06:25.435Z,12.82
2023-05-02T06:07:25.368Z,12.94
2023-05-02T06:08:25.548Z,13.09
2023-05-02T06:09:25.356Z,13.16
2023-05-02T06:10:25.343Z,13.04
2023-05-02T06:11:25.333Z,13.01
2023-05-02T06:12:25.330Z,13.08
2023-05-02T06:13:25.370Z,12.98
2023-05-02T06:14:25.355Z,13.05
2023-05-02T06:15:25.394Z,12.85
2023-05-02T06:16:25.369Z,12.83
2023-05-02T06:17:25.325Z,12.76
2023-05-02T06:18:25.280Z,12.86
2023-05-02T06:19:25.309Z,12.98
2023-05-02T06:20:25.271Z,12.86
2023-05-02T06:21:25.269Z,12.94
2023-05-02T06:22:25.261Z,12.78
2023-05-02T06:23:25.426Z,12.83
2023-05-02T06:24:25.235Z,12.73
2023-05-02T06:25:25.234Z,12.85
2023-05-02T06:26:25.221Z,12.73
2023-05-02T06:27:25.221Z,12.80
2023-05-02T06:28:25.203Z,12.83
2023-05-02T06:29:25.212Z,12.93
2023-05-02T06:30:25.201Z,12.72
2023-05-02T06:31:25.224Z,12.62
2023-05-02T06:32:25.267Z,12.57
2023-05-02T06:33:25.160Z,12.70
2023-05-02T06:34:25.172Z,12.76
2023-05-02T06:35:25.143Z,12.79
2023-05-02T06:36:25.138Z,12.87
2023-05-02T06:37:25.121Z,12.95
2023-05-02T06:38:25.124Z,13.00
2023-05-02T06:39:25.145Z,13.03
2023-05-02T06:40:25.104Z,13.04
2023-05-02T06:41:25.091Z,13.08
2023-05-02T06:42:25.083Z,12.93
2023-05-02T06:43:25.080Z,13.16
2023-05-02T06:44:25.106Z,13.09
2023-05-02T06:45:25.062Z,13.23
2023-05-02T06:46:25.124Z,13.15
2023-05-02T06:47:25.094Z,13.00
2023-05-02T06:48:25.041Z,13.01
2023-05-02T06:49:25.080Z,12.97
2023-05-02T06:50:25.046Z,13.01
2023-05-02T06:51:25.054Z,13.16
2023-05-02T06:52:25.010Z,13.12
2023-05-02T06:53:25.006Z,13.22
2023-05-02T06:54:25.019Z,13.03
2023-05-02T06:55:25.000Z,13.27
2023-05-02T06:56:24.980Z,13.42
2023-05-02T06:57:24.978Z,13.33
2023-05-02T06:58:24.968Z,13.62
2023-05-02T06:59:24.984Z,13.50
2023-05-02T07:00:24.945Z,13.52
2023-05-02T07:01:26.030Z,13.72
2023-05-02T07:02:24.961Z,13.79
2023-05-02T07:03:24.929Z,13.81
2023-05-02T07:04:25.220Z,13.90
2023-05-02T07:05:24.908Z,13.90
2023-05-02T07:06:25.016Z,13.89
2023-05-02T07:07:24.893Z,13.85
2023-05-02T07:08:24.899Z,13.75
2023-05-02T07:09:24.899Z,13.87
2023-05-02T07:10:24.864Z,13.67
2023-05-02T07:11:24.855Z,13.62
2023-05-02T07:12:24.877Z,13.56
2023-05-02T07:13:24.855Z,13.50
2023-05-02T07:14:24.863Z,13.38
2023-05-02T07:15:24.829Z,13.44
2023-05-02T07:16:24.887Z,13.74
2023-05-02T07:17:24.820Z,13.67
2023-05-02T07:18:24.813Z,13.70
2023-05-02T07:19:24.867Z,13.57
2023-05-02T07:20:24.918Z,13.53
2023-05-02T07:21:24.797Z,13.37
2023-05-02T07:22:24.787Z,13.42
2023-05-02T07:23:24.775Z,13.39
2023-05-02T07:24:24.796Z,13.42
2023-05-02T07:25:24.781Z,13.31
2023-05-02T07:26:24.752Z,13.47
2023-05-02T07:27:24.781Z,13.59
2023-05-02T07:28:24.729Z,13.46
2023-05-02T07:29:24.757Z,13.52
2023-05-02T07:30:24.842Z,13.49
2023-05-02T07:31:24.721Z,13.74
2023-05-02T07:32:24.767Z,13.62
2023-05-02T07:33:24.754Z,13.62
2023-05-02T07:34:24.751Z,13.44
2023-05-02T07:35:24.689Z,13.33
2023-05-02T07:36:24.681Z,13.30
2023-05-02T07:37:24.662Z,13.25
2023-05-02T07:38:24.680Z,13.18
2023-05-02T07:39:24.746Z,13.15
2023-05-02T07:40:24.716Z,12.95
2023-05-02T07:41:24.633Z,12.93
2023-05-02T07:42:24.629Z,12.94
2023-05-02T07:43:24.620Z,12.98
2023-05-02T07:44:24.648Z,12.90
2023-05-02T07:45:24.607Z,13.00
2023-05-02T07:46:24.609Z,12.85
2023-05-02T07:47:24.611Z,12.75
2023-05-02T07:48:26.195Z,12.97
2023-05-02T07:49:25.595Z,12.72
2023-05-02T07:50:24.634Z,12.68
2023-05-02T07:51:24.562Z,12.80
2023-05-02T07:52:24.555Z,12.82
2023-05-02T07:53:24.563Z,12.94
2023-05-02T07:54:24.573Z,12.82
2023-05-02T07:55:24.565Z,12.78
2023-05-02T07:56:24.523Z,12.86
2023-05-02T07:57:24.572Z,12.78
2023-05-02T07:58:24.502Z,12.73
2023-05-02T07:59:24.542Z,12.67
2023-05-02T08:00:24.599Z,12.64
2023-05-02T08:01:24.558Z,12.65
2023-05-02T08:02:24.579Z,12.65
2023-05-02T08:03:24.658Z,12.67
2023-05-02T08:04:24.541Z,12.80
2023-05-02T08:05:24.473Z,12.68
2023-05-02T08:06:24.488Z,12.78
2023-05-02T08:07:24.436Z,12.76
2023-05-02T08:08:24.436Z,12.76
2023-05-02T08:09:24.448Z,12.80
2023-05-02T08:10:24.421Z,12.82
2023-05-02T08:11:24.403Z,12.98
2023-05-02T08:12:24.398Z,13.08
2023-05-02T08:13:24.393Z,13.00
2023-05-02T08:14:24.424Z,13.03
2023-05-02T08:15:24.390Z,12.85
2023-05-02T08:16:24.437Z,12.90
2023-05-02T08:17:24.379Z,12.93
2023-05-02T08:18:24.354Z,13.00
2023-05-02T08:19:24.370Z,13.01
2023-05-02T08:20:24.348Z,13.09
2023-05-02T08:21:24.351Z,13.09
2023-05-02T08:22:24.323Z,13.18
2023-05-02T08:23:24.318Z,13.15
2023-05-02T08:24:24.330Z,13.30
2023-05-02T08:25:24.313Z,13.42
2023-05-02T08:26:24.294Z,13.68
2023-05-02T08:27:24.290Z,14.08
2023-05-02T08:28:24.281Z,14.12
2023-05-02T08:29:24.298Z,14.18
2023-05-02T08:30:24.260Z,14.25
2023-05-02T08:31:24.252Z,14.32
2023-05-02T08:32:24.243Z,14.05
2023-05-02T08:33:25.237Z,14.30
2023-05-02T08:34:24.292Z,14.50
2023-05-02T08:35:24.237Z,14.51
2023-05-02T08:36:24.225Z,14.62
2023-05-02T08:37:24.209Z,14.97
2023-05-02T08:38:24.201Z,15.37
2023-05-02T08:39:24.212Z,15.61
2023-05-02T08:40:34.010Z,15.70
2023-05-02T08:41:26.185Z,15.57
2023-05-02T08:42:24.176Z,15.47
2023-05-02T08:43:24.173Z,15.36
2023-05-02T08:44:24.209Z,14.73
2023-05-02T08:45:24.144Z,14.22
2023-05-02T08:46:24.224Z,14.51
2023-05-02T08:47:24.213Z,14.79
2023-05-02T08:48:24.123Z,15.09
2023-05-02T08:49:24.138Z,15.61
2023-05-02T08:50:24.104Z,15.33
2023-05-02T08:51:24.102Z,15.36
2023-05-02T08:52:24.102Z,15.75
2023-05-02T08:53:24.103Z,15.88
2023-05-02T08:54:24.106Z,15.68
2023-05-02T08:55:24.071Z,15.39
2023-05-02T08:56:24.069Z,14.85
2023-05-02T08:57:24.062Z,14.47
2023-05-02T08:58:24.046Z,14.53
2023-05-02T08:59:24.086Z,14.62
2023-05-02T09:00:24.037Z,14.48
2023-05-02T09:01:24.099Z,14.40
2023-05-02T09:02:24.051Z,14.45
2023-05-02T09:03:24.049Z,14.23
2023-05-02T09:04:24.085Z,14.23
2023-05-02T09:05:23.988Z,14.54
2023-05-02T09:06:24.034Z,14.77
2023-05-02T09:07:23.988Z,15.11
2023-05-02T09:08:23.977Z,15.40
2023-05-02T09:09:24.005Z,15.57
2023-05-02T09:10:23.962Z,15.57
2023-05-02T09:11:23.952Z,15.54
2023-05-02T09:12:23.934Z,15.33
2023-05-02T09:13:23.932Z,14.88
2023-05-02T09:14:23.965Z,14.91
2023-05-02T09:15:23.935Z,14.96
2023-05-02T09:16:24.034Z,15.04
2023-05-02T09:17:23.897Z,15.06
2023-05-02T09:18:23.916Z,15.33
2023-05-02T09:19:23.914Z,15.79
2023-05-02T09:20:23.896Z,15.54
2023-05-02T09:21:23.891Z,15.73
2023-05-02T09:22:23.867Z,15.86
2023-05-02T09:23:23.864Z,16.28
2023-05-02T09:24:23.888Z,16.75
2023-05-02T09:25:23.841Z,17.11
2023-05-02T09:26:23.838Z,16.99
2023-05-02T09:27:23.887Z,16.97
2023-05-02T09:28:23.888Z,16.58
2023-05-02T09:29:23.870Z,16.24
2023-05-02T09:30:23.816Z,16.09
2023-05-02T09:32:24.783Z,15.80
2023-05-02T09:33:23.782Z,16.00
2023-05-02T09:34:23.810Z,15.98
2023-05-02T09:35:23.811Z,16.33
2023-05-02T09:36:23.776Z,15.82
2023-05-02T09:37:23.748Z,15.49
2023-05-02T09:38:23.738Z,15.55
2023-05-02T09:39:25.548Z,15.29
2023-05-02T09:40:24.782Z,15.49
2023-05-02T09:41:23.719Z,14.92
2023-05-02T09:42:23.708Z,14.77
2023-05-02T09:43:23.701Z,14.60
2023-05-02T09:44:23.721Z,14.62
2023-05-02T09:45:23.689Z,14.72
2023-05-02T09:46:23.689Z,14.85
2023-05-02T09:47:23.699Z,15.04
2023-05-02T09:48:23.675Z,15.10
2023-05-02T09:49:23.701Z,15.06
2023-05-02T09:50:23.640Z,15.24
2023-05-02T09:51:23.640Z,15.00
2023-05-02T09:52:23.642Z,14.84
2023-05-02T09:53:23.615Z,14.84
2023-05-02T09:54:23.650Z,14.94
2023-05-02T09:55:23.606Z,15.10
2023-05-02T09:56:24.883Z,15.18
2023-05-02T09:57:23.585Z,15.24
2023-05-02T09:58:23.584Z,15.59
2023-05-02T09:59:23.582Z,15.62
2023-05-02T10:00:23.595Z,15.75
2023-05-02T10:01:23.576Z,15.79
2023-05-02T10:02:23.611Z,15.59
2023-05-02T10:03:23.589Z,15.65
2023-05-02T10:04:23.766Z,15.54
2023-05-02T10:05:23.555Z,15.59
2023-05-02T10:06:23.558Z,15.68
2023-05-02T10:07:23.520Z,15.90
2023-05-02T10:08:23.505Z,15.88
2023-05-02T10:09:23.500Z,15.94
2023-05-02T10:10:23.514Z,15.76
2023-05-02T10:11:23.494Z,15.25
2023-05-02T10:12:23.477Z,15.14
2023-05-02T10:13:23.471Z,14.79
2023-05-02T10:14:23.461Z,14.37
2023-05-02T10:15:23.508Z,14.18
2023-05-02T10:16:23.528Z,14.32
2023-05-02T10:17:23.438Z,14.40
2023-05-02T10:18:23.473Z,14.43
2023-05-02T10:19:23.434Z,14.62
2023-05-02T10:20:23.452Z,14.55
2023-05-02T10:21:23.399Z,14.54
2023-05-02T10:22:23.403Z,14.63
2023-05-02T10:23:23.389Z,14.54
2023-05-02T10:24:23.391Z,14.59
2023-05-02T10:25:23.398Z,14.59
2023-05-02T10:26:23.363Z,14.60
2023-05-02T10:27:23.411Z,14.60
2023-05-02T10:28:23.369Z,14.65
2023-05-02T10:29:23.341Z,14.48
2023-05-02T10:30:23.358Z,14.32
2023-05-02T10:31:23.349Z,14.48
2023-05-02T10:32:23.351Z,14.25
2023-05-02T10:33:23.312Z,14.33
2023-05-02T10:34:23.350Z,14.23
2023-05-02T10:35:23.359Z,14.05
2023-05-02T10:36:23.291Z,13.87
2023-05-02T10:37:23.284Z,13.93
2023-05-02T10:38:24.788Z,13.96
2023-05-02T10:39:23.257Z,13.95
2023-05-02T10:40:23.291Z,13.93
2023-05-02T10:41:23.253Z,14.03
2023-05-02T10:42:23.232Z,13.92
2023-05-02T10:43:23.227Z,14.07
2023-05-02T10:44:23.216Z,13.99
2023-05-02T10:45:23.242Z,13.99
2023-05-02T10:46:23.239Z,14.00
2023-05-02T10:47:23.284Z,13.92
2023-05-02T10:48:23.181Z,14.07
2023-05-02T10:49:23.173Z,14.11
2023-05-02T10:50:23.205Z,14.04
2023-05-02T10:51:23.146Z,14.35
2023-05-02T10:52:24.158Z,14.20
2023-05-02T10:53:23.163Z,14.15
2023-05-02T10:54:23.150Z,14.29
2023-05-02T10:55:23.155Z,14.43
2023-05-02T10:56:23.120Z,14.43
2023-05-02T10:57:23.135Z,14.35
2023-05-02T10:58:23.102Z,14.50
2023-05-02T10:59:24.098Z,14.70
2023-05-02T11:00:23.129Z,14.53
2023-05-02T11:01:23.113Z,14.72
2023-05-02T11:02:23.179Z,14.77
2023-05-02T11:03:23.091Z,14.72
2023-05-02T11:04:23.062Z,15.03
2023-05-02T11:05:23.107Z,15.21
2023-05-02T11:06:23.054Z,15.14
2023-05-02T11:07:23.042Z,15.00
2023-05-02T11:08:23.462Z,15.03
2023-05-02T11:09:24.021Z,14.99
2023-05-02T11:10:23.045Z,14.92
2023-05-02T11:11:23.038Z,14.96
2023-05-02T11:12:22.998Z,14.72
2023-05-02T11:13:22.986Z,14.78
2023-05-02T11:14:22.981Z,14.72
2023-05-02T11:15:23.174Z,14.84
2023-05-02T11:16:23.024Z,15.03
2023-05-02T11:17:22.976Z,15.36
2023-05-02T11:18:22.956Z,15.65
2023-05-02T11:19:22.942Z,15.77
2023-05-02T11:20:22.942Z,15.88
2023-05-02T11:21:22.957Z,15.86
2023-05-02T11:22:22.925Z,15.95
2023-05-02T11:23:22.947Z,15.94
2023-05-02T11:24:22.912Z,15.88
2023-05-02T11:25:22.998Z,15.54
2023-05-02T11:26:22.892Z,15.24
2023-05-02T11:27:22.889Z,14.89
2023-05-02T11:28:22.882Z,14.91
2023-05-02T11:29:22.885Z,14.82
2023-05-02T11:30:22.894Z,14.79
2023-05-02T11:31:22.938Z,14.68
2023-05-02T11:32:23.077Z,14.81
2023-05-02T11:33:22.921Z,14.48
2023-05-02T11:34:55.446Z,14.41
2023-05-02T11:35:22.863Z,14.08
2023-05-02T11:36:22.811Z,14.12
2023-05-02T11:37:22.804Z,14.23
2023-05-02T11:38:22.799Z,14.12
2023-05-02T11:39:22.811Z,14.14
2023-05-02T11:40:22.814Z,14.22
2023-05-02T11:41:22.776Z,14.22
2023-05-02T11:42:22.774Z,14.32
2023-05-02T11:43:22.836Z,14.45
2023-05-02T11:44:22.751Z,14.30
2023-05-02T11:45:22.773Z,14.05
2023-05-02T11:46:22.868Z,13.97
2023-05-02T11:47:22.748Z,13.95
2023-05-02T11:48:22.732Z,13.79
2023-05-02T11:49:22.719Z,13.93
2023-05-02T11:50:22.732Z,13.85
2023-05-02T11:51:22.728Z,13.90
2023-05-02T11:52:22.702Z,13.95
2023-05-02T11:53:22.695Z,13.87
2023-05-02T11:54:22.686Z,13.86
2023-05-02T11:55:22.706Z,13.74
2023-05-02T11:56:22.664Z,13.59
2023-05-02T11:57:22.657Z,13.56
2023-05-02T11:58:22.678Z,13.65
2023-05-02T11:59:22.664Z,13.60
2023-05-02T12:00:22.669Z,13.50
2023-05-02T12:01:22.630Z,13.44
2023-05-02T12:02:22.707Z,13.47
2023-05-02T12:03:22.863Z,13.52
2023-05-02T12:04:22.635Z,13.63
2023-05-02T12:05:22.670Z,13.57
2023-05-02T12:06:22.735Z,13.60
2023-05-02T12:07:22.595Z,13.44
2023-05-02T12:08:22.585Z,13.57
2023-05-02T12:09:22.592Z,13.38
2023-05-02T12:10:22.591Z,13.44
2023-05-02T12:11:22.563Z,13.41
2023-05-02T12:12:22.558Z,13.38
2023-05-02T12:13:22.548Z,13.28
2023-05-02T12:14:22.550Z,13.16
2023-05-02T12:15:22.566Z,13.01
2023-05-02T12:16:22.554Z,13.01
2023-05-02T12:17:22.569Z,12.97
2023-05-02T12:18:22.546Z,12.93
2023-05-02T12:19:22.527Z,12.97
2023-05-02T12:20:22.527Z,12.93
2023-05-02T12:21:22.521Z,13.01
2023-05-02T12:22:22.487Z,12.95
2023-05-02T12:23:22.476Z,13.01
2023-05-02T12:24:22.504Z,12.87
2023-05-02T12:25:22.484Z,12.86
2023-05-02T12:26:22.612Z,12.85
2023-05-02T12:27:22.453Z,12.82
2023-05-02T12:28:22.452Z,12.85
2023-05-02T12:29:22.435Z,12.62
2023-05-02T12:30:22.451Z,12.78
2023-05-02T12:31:22.519Z,12.65
2023-05-02T12:32:22.438Z,12.93
2023-05-02T12:33:22.413Z,12.95
2023-05-02T12:34:22.401Z,12.95
2023-05-02T12:35:22.427Z,12.91
2023-05-02T12:36:22.380Z,13.00
2023-05-02T12:37:22.380Z,13.03
2023-05-02T12:38:22.365Z,13.00
2023-05-02T12:39:22.359Z,13.00
2023-05-02T12:40:22.385Z,12.85
2023-05-02T12:41:22.337Z,12.93
2023-05-02T12:42:22.333Z,13.01
2023-05-02T12:43:22.358Z,12.95
2023-05-02T12:44:22.335Z,12.97
2023-05-02T12:45:22.335Z,12.93
2023-05-02T12:46:22.343Z,12.85
2023-05-02T12:47:22.494Z,12.94
2023-05-02T12:48:22.290Z,12.98
2023-05-02T12:49:22.281Z,12.82
2023-05-02T12:50:22.294Z,13.00
2023-05-02T12:51:22.257Z,12.94
2023-05-02T12:52:22.284Z,12.86
2023-05-02T12:53:22.242Z,12.85
2023-05-02T12:54:22.242Z,12.94
2023-05-02T12:55:22.259Z,12.94
2023-05-02T12:56:22.225Z,13.00
2023-05-02T12:57:22.211Z,13.01
2023-05-02T12:58:22.226Z,12.82
2023-05-02T12:59:22.204Z,12.90